createdAt,value
2023-03-16T00:04:20.193Z,2.17
2023-03-16T00:09:42.703Z,2.23
2023-03-16T00:15:05.297Z,2.17
2023-03-16T00:20:28.399Z,2.11
2023-03-16T00:25:54.364Z,1.98
2023-03-16T00:31:16.449Z,2.04
2023-03-16T00:36:38.906Z,2.05
2023-03-16T00:42:01.587Z,1.93
2023-03-16T00:47:34.745Z,2.05
2023-03-16T00:52:56.858Z,1.77
2023-03-16T00:58:20.633Z,1.79
2023-03-16T01:03:43.023Z,1.79
2023-03-16T01:09:06.286Z,1.77
2023-03-16T01:14:28.627Z,1.77
2023-03-16T01:19:52.267Z,1.82
2023-03-16T01:25:16.275Z,1.82
2023-03-16T01:30:39.442Z,1.56
2023-03-16T01:36:05.481Z,1.70
2023-03-16T01:41:35.812Z,1.64
2023-03-16T01:46:58.470Z,1.54
2023-03-16T01:52:24.769Z,1.55
2023-03-16T01:57:48.310Z,1.39
2023-03-16T02:03:17.446Z,1.43
2023-03-16T02:08:50.111Z,1.39
2023-03-16T02:14:13.317Z,1.38
2023-03-16T02:19:56.265Z,1.37
2023-03-16T02:25:19.646Z,1.37
2023-03-16T02:30:42.369Z,1.29
2023-03-16T02:36:04.610Z,1.15
2023-03-16T02:41:27.188Z,1.25
2023-03-16T02:46:56.967Z,1.31
2023-03-16T02:52:19.524Z,1.11
2023-03-16T02:57:41.865Z,1.11
2023-03-16T03:03:12.835Z,1.21
2023-03-16T03:08:35.599Z,1.22
2023-03-16T03:13:58.549Z,1.14
2023-03-16T03:19:23.725Z,0.99
2023-03-16T03:24:49.318Z,1.22
2023-03-16T03:30:14.304Z,1.21
2023-03-16T03:35:36.685Z,1.08
2023-03-16T03:41:00.198Z,1.17
2023-03-16T03:46:27.368Z,1.21
2023-03-16T03:51:49.583Z,1.14
2023-03-16T03:57:17.318Z,1.19
2023-03-16T04:02:41.389Z,1.27
2023-03-16T04:08:12.312Z,1.20
2023-03-16T04:13:34.955Z,1.22
2023-03-16T04:18:57.647Z,1.13
2023-03-16T04:24:20.008Z,1.29
2023-03-16T04:29:42.444Z,1.33
2023-03-16T04:35:05.690Z,1.64
2023-03-16T04:40:39.407Z,1.66
2023-03-16T04:46:10.840Z,1.58
2023-03-16T04:51:33.228Z,1.67
2023-03-16T04:57:05.565Z,1.71
2023-03-16T05:02:36.747Z,1.72
2023-03-16T05:08:00.066Z,1.94
2023-03-16T05:13:24.346Z,1.94
2023-03-16T05:18:48.052Z,1.97
2023-03-16T05:24:10.045Z,2.12
2023-03-16T05:29:32.892Z,2.11
2023-03-16T05:34:55.202Z,2.10
2023-03-16T05:40:17.708Z,2.16
2023-03-16T05:45:46.864Z,2.16
2023-03-16T05:51:14.633Z,2.10
2023-03-16T05:56:37.483Z,2.08
2023-03-16T06:02:00.134Z,2.13
2023-03-16T06:07:22.292Z,2.16
2023-03-16T06:12:48.111Z,2.06
2023-03-16T06:18:10.838Z,2.08
2023-03-16T06:23:34.311Z,1.94
2023-03-16T06:28:58.168Z,1.99
2023-03-16T06:34:20.985Z,1.97
2023-03-16T06:39:43.219Z,2.01
2023-03-16T06:45:08.311Z,1.94
2023-03-16T06:50:33.232Z,1.93
2023-03-16T06:55:58.012Z,1.83
2023-03-16T07:01:23.624Z,1.65
2023-03-16T07:06:46.250Z,1.47
2023-03-16T07:12:08.889Z,1.53
2023-03-16T07:17:34.108Z,1.52
2023-03-16T07:22:58.457Z,1.35
2023-03-16T07:28:21.210Z,1.45
2023-03-16T07:33:43.680Z,1.33
2023-03-16T07:39:17.704Z,1.44
2023-03-16T07:44:42.431Z,1.25
2023-03-16T07:50:05.616Z,1.29
2023-03-16T07:55:29.057Z,1.36
2023-03-16T08:00:51.676Z,1.33
2023-03-16T08:06:15.173Z,1.42
2023-03-16T08:11:37.498Z,1.23
2023-03-16T08:17:02.322Z,1.48
2023-03-16T08:22:24.988Z,1.50
2023-03-16T08:27:49.120Z,1.40
2023-03-16T08:33:11.379Z,1.29
2023-03-16T08:38:34.186Z,1.47
2023-03-16T08:44:00.970Z,1.46
2023-03-16T08:49:24.461Z,1.41
2023-03-16T08:55:03.559Z,1.45
2023-03-16T09:00:26.567Z,1.41
2023-03-16T09:05:49.966Z,1.29
2023-03-16T09:11:16.075Z,1.37
2023-03-16T09:16:39.129Z,1.41
2023-03-16T09:22:01.036Z,1.41
2023-03-16T09:27:23.490Z,1.45
2023-03-16T09:32:49.327Z,1.44
2023-03-16T09:38:12.172Z,1.30
2023-03-16T09:43:44.097Z,1.51
2023-03-16T09:49:06.520Z,1.33
2023-03-16T09:54:57.319Z,1.33
2023-03-16T10:00:31.310Z,1.48
2023-03-16T10:06:03.598Z,1.26
2023-03-16T10:11:38.765Z,1.46
2023-03-16T10:17:14.246Z,1.29
2023-03-16T10:22:38.904Z,1.53
2023-03-16T10:28:09.604Z,1.47
2023-03-16T10:33:37.333Z,1.66
2023-03-16T10:39:11.695Z,1.62
2023-03-16T10:44:40.528Z,1.71
2023-03-16T10:50:14.875Z,2.02
2023-03-16T10:55:44.180Z,2.10
2023-03-16T11:01:11.513Z,2.07
2023-03-16T11:06:34.144Z,1.98
2023-03-16T11:11:56.584Z,1.77
2023-03-16T11:17:39.025Z,1.86
2023-03-16T11:23:02.095Z,1.74
2023-03-16T11:28:47.845Z,1.77
2023-03-16T11:34:20.705Z,1.73
2023-03-16T11:40:01.983Z,1.66
2023-03-16T11:45:35.984Z,1.71
2023-03-16T11:51:24.691Z,1.59
2023-03-16T11:57:08.446Z,1.66
2023-03-16T12:02:47.042Z,1.77
2023-03-16T12:08:25.363Z,1.77
2023-03-16T12:14:12.047Z,1.78
2023-03-16T12:19:59.535Z,1.71
2023-03-16T12:25:37.490Z,1.50
2023-03-16T12:31:14.930Z,1.63
2023-03-16T12:36:51.586Z,1.57
2023-03-16T12:42:36.320Z,1.55
2023-03-16T12:48:16.614Z,1.50
2023-03-16T12:53:52.381Z,1.41
2023-03-16T12:59:36.759Z,1.46
2023-03-16T13:05:03.310Z,1.43
2023-03-16T13:10:26.441Z,1.36
2023-03-16T13:15:50.205Z,1.35
2023-03-16T13:21:22.257Z,1.38
2023-03-16T13:26:50.597Z,1.35
2023-03-16T13:32:20.167Z,1.31
2023-03-16T13:37:44.336Z,1.31
2023-03-16T13:43:06.099Z,1.28
2023-03-16T13:48:28.216Z,1.25
2023-03-16T13:53:51.838Z,1.20
2023-03-16T13:59:14.826Z,1.13
2023-03-16T14:04:37.181Z,1.04
2023-03-16T14:09:59.615Z,1.07
2023-03-16T14:15:30.444Z,1.02
2023-03-16T14:20:54.906Z,0.87
2023-03-16T14:26:18.999Z,0.94
2023-03-16T14:31:41.619Z,0.95
2023-03-16T14:37:19.760Z,0.89
2023-03-16T14:42:43.232Z,0.94
2023-03-16T14:48:20.428Z,1.04
2023-03-16T14:53:42.352Z,0.97
2023-03-16T14:59:04.578Z,0.94
2023-03-16T15:04:33.866Z,1.01
2023-03-16T15:10:01.881Z,1.06
2023-03-16T15:15:27.768Z,1.06
2023-03-16T15:20:52.622Z,1.03
2023-03-16T15:26:19.668Z,1.01
2023-03-16T15:31:41.971Z,0.99
2023-03-16T15:37:05.068Z,0.94
2023-03-16T15:42:27.875Z,0.99
2023-03-16T15:47:51.692Z,0.96
2023-03-16T15:53:40.426Z,0.97
2023-03-16T15:59:06.699Z,0.97
2023-03-16T16:04:29.432Z,0.80
2023-03-16T16:09:52.406Z,0.96
2023-03-16T16:15:37.560Z,0.99
2023-03-16T16:21:01.961Z,1.00
2023-03-16T16:26:41.600Z,1.04
2023-03-16T16:32:25.003Z,1.04
2023-03-16T16:37:47.674Z,1.06
2023-03-16T16:43:19.774Z,0.99
2023-03-16T16:49:16.005Z,1.02
2023-03-16T16:54:38.065Z,0.86
2023-03-16T17:00:00.114Z,0.92
2023-03-16T17:05:24.969Z,0.98
2023-03-16T17:10:48.308Z,0.98
2023-03-16T17:16:16.744Z,0.86
2023-03-16T17:21:39.415Z,0.86
2023-03-16T17:27:03.123Z,0.68
2023-03-16T17:32:25.638Z,0.69
2023-03-16T17:37:48.739Z,0.89
2023-03-16T17:43:18.391Z,0.92
2023-03-16T17:48:40.863Z,0.87
2023-03-16T17:54:03.943Z,0.90
2023-03-16T17:59:26.359Z,0.88
2023-03-16T18:04:48.226Z,0.78
2023-03-16T18:10:19.331Z,0.82
2023-03-16T18:15:40.914Z,0.73
2023-03-16T18:21:04.075Z,0.84
2023-03-16T18:26:26.877Z,0.78
2023-03-16T18:31:50.317Z,0.81
2023-03-16T18:37:22.562Z,0.75
2023-03-16T18:42:44.929Z,0.86
2023-03-16T18:48:17.777Z,0.79
2023-03-16T18:53:40.301Z,0.79
2023-03-16T18:59:02.885Z,0.85
2023-03-16T19:04:31.104Z,0.82
2023-03-16T19:09:53.238Z,0.57
2023-03-16T19:15:30.009Z,0.76
2023-03-16T19:20:53.673Z,0.88
2023-03-16T19:26:15.933Z,0.87
2023-03-16T19:31:38.470Z,0.86
2023-03-16T19:37:01.088Z,0.74
2023-03-16T19:42:30.652Z,0.75
2023-03-16T19:47:53.226Z,0.90
2023-03-16T19:53:21.254Z,0.90
2023-03-16T19:58:52.977Z,0.88
2023-03-16T20:04:20.083Z,0.89
2023-03-16T20:09:42.261Z,0.86
2023-03-16T20:15:04.346Z,0.84
2023-03-16T20:20:28.801Z,0.78
2023-03-16T20:25:54.399Z,0.85
2023-03-16T20:31:30.248Z,0.81
2023-03-16T20:37:26.864Z,0.58
2023-03-16T20:42:49.937Z,0.84
2023-03-16T20:48:16.262Z,0.83
2023-03-16T20:53:38.514Z,0.74
2023-03-16T20:59:00.634Z,0.78
2023-03-16T21:04:28.118Z,0.79
2023-03-16T21:09:51.528Z,0.79
2023-03-16T21:15:24.879Z,0.79
2023-03-16T21:20:49.178Z,0.78
2023-03-16T21:26:21.760Z,0.80
2023-03-16T21:31:44.487Z,0.80
2023-03-16T21:37:26.039Z,0.80
2023-03-16T21:42:49.388Z,0.67
2023-03-16T21:48:39.600Z,0.53
2023-03-16T21:54:02.334Z,0.78
2023-03-16T21:59:35.588Z,0.64
2023-03-16T22:05:42.157Z,0.54
2023-03-16T22:11:12.974Z,0.78
2023-03-16T22:16:41.304Z,0.47
2023-03-16T22:22:14.856Z,0.77
2023-03-16T22:27:44.753Z,0.78
2023-03-16T22:33:08.290Z,0.49
2023-03-16T22:38:30.715Z,0.70
2023-03-16T22:43:53.360Z,0.78
2023-03-16T22:49:22.717Z,0.73
2023-03-16T22:54:46.807Z,0.60
2023-03-16T23:00:12.263Z,0.64
2023-03-16T23:05:34.480Z,0.64
2023-03-16T23:10:56.931Z,0.68
2023-03-16T23:16:22.655Z,0.72
2023-03-16T23:21:45.302Z,0.68
2023-03-16T23:27:18.198Z,0.69
2023-03-16T23:32:39.919Z,0.64
2023-03-16T23:38:02.103Z,0.59
2023-03-16T23:43:24.585Z,0.57
2023-03-16T23:48:49.019Z,0.51
2023-03-16T23:54:19.691Z,0.54
2023-03-16T23:59:42.869Z,0.67
